sensor_id;sensor_type;location;lat;lon;timestamp;pressure;altitude;pressure_sealevel;temperature;humidity
22830;BME280;11581;51.250;6.778;2023-04-29T00:01:46;100885.88;;;16.12;61.80
22830;BME280;11581;51.250;6.778;2023-04-29T00:04:12;100737.41;;;15.18;61.74
22830;BME280;11581;51.250;6.778;2023-04-29T00:06:39;100839.25;;;15.74;61.71
22830;BME280;11581;51.250;6.778;2023-04-29T00:09:06;100809.19;;;15.40;61.55
22830;BME280;11581;51.250;6.778;2023-04-29T00:11:32;100842.63;;;15.68;61.74
22830;BME280;11581;51.250;6.778;2023-04-29T00:13:59;100793.28;;;15.30;61.85
22830;BME280;11581;51.250;6.778;2023-04-29T00:16:25;100909.16;;;15.97;61.97
22830;BME280;11581;51.250;6.778;2023-04-29T00:18:52;100912.03;;;15.95;62.09
22830;BME280;11581;51.250;6.778;2023-04-29T00:21:18;100850.91;;;15.58;62.27
22830;BME280;11581;51.250;6.778;2023-04-29T00:23:45;100913.94;;;15.87;62.60
22830;BME280;11581;51.250;6.778;2023-04-29T00:26:11;100912.97;;;15.80;62.83
22830;BME280;11581;51.250;6.778;2023-04-29T00:28:42;100921.22;;;15.78;63.10
22830;BME280;11581;51.250;6.778;2023-04-29T00:31:09;100756.63;;;14.76;63.28
22830;BME280;11581;51.250;6.778;2023-04-29T00:33:35;100925.13;;;15.68;63.62
22830;BME280;11581;51.250;6.778;2023-04-29T00:36:02;100853.63;;;15.12;64.03
22830;BME280;11581;51.250;6.778;2023-04-29T00:38:29;100826.25;;;14.70;64.12
22830;BME280;11581;51.250;6.778;2023-04-29T00:40:55;100928.78;;;15.44;64.41
22830;BME280;11581;51.250;6.778;2023-04-29T00:43:22;100874.66;;;15.00;64.68
22830;BME280;11581;51.250;6.778;2023-04-29T00:45:48;100935.38;;;15.25;64.81
22830;BME280;11581;51.250;6.778;2023-04-29T00:48:15;100834.16;;;14.55;65.08
22830;BME280;11581;51.250;6.778;2023-04-29T00:50:42;100818.94;;;14.40;65.35
22830;BME280;11581;51.250;6.778;2023-04-29T00:53:09;100933.91;;;15.07;65.51
22830;BME280;11581;51.250;6.778;2023-04-29T00:55:37;100846.28;;;14.43;65.67
22830;BME280;11581;51.250;6.778;2023-04-29T00:58:04;100901.28;;;14.63;65.72
22830;BME280;11581;51.250;6.778;2023-04-29T01:00:31;100945.38;;;14.93;66.04
22830;BME280;11581;51.250;6.778;2023-04-29T01:02:58;100911.97;;;14.71;66.07
22830;BME280;11581;51.250;6.778;2023-04-29T01:05:26;100858.38;;;14.31;65.87
22830;BME280;11581;51.250;6.778;2023-04-29T01:08:17;100949.06;;;14.84;67.28
22830;BME280;11581;51.250;6.778;2023-04-29T01:10:48;100958.97;;;14.83;66.17
22830;BME280;11581;51.250;6.778;2023-04-29T01:13:34;100958.28;;;14.81;65.97
22830;BME280;11581;51.250;6.778;2023-04-29T01:16:10;100961.50;;;14.77;66.06
22830;BME280;11581;51.250;6.778;2023-04-29T01:18:45;100967.38;;;14.72;66.71
22830;BME280;11581;51.250;6.778;2023-04-29T01:21:17;100950.94;;;14.51;65.86
22830;BME280;11581;51.250;6.778;2023-04-29T01:23:44;100877.28;;;14.14;66.00
22830;BME280;11581;51.250;6.778;2023-04-29T01:26:12;100968.03;;;14.66;66.12
22830;BME280;11581;51.250;6.778;2023-04-29T01:29:21;100993.22;;;14.65;67.35
22830;BME280;11581;51.250;6.778;2023-04-29T01:32:04;100970.72;;;14.66;67.42
22830;BME280;11581;51.250;6.778;2023-04-29T01:34:47;100973.41;;;14.66;66.87
22830;BME280;11581;51.250;6.778;2023-04-29T01:37:24;100921.75;;;14.32;67.09
22830;BME280;11581;51.250;6.778;2023-04-29T01:42:38;100982.13;;;14.68;66.23
22830;BME280;11581;51.250;6.778;2023-04-29T01:45:10;100942.56;;;14.46;66.17
22830;BME280;11581;51.250;6.778;2023-04-29T01:47:40;100812.03;;;13.65;66.13
22830;BME280;11581;51.250;6.778;2023-04-29T01:50:07;100872.75;;;13.98;66.27
22830;BME280;11581;51.250;6.778;2023-04-29T01:52:34;100877.59;;;13.95;66.45
22830;BME280;11581;51.250;6.778;2023-04-29T01:55:01;100989.16;;;14.61;66.39
22830;BME280;11581;51.250;6.778;2023-04-29T01:57:37;100987.84;;;14.57;66.11
22830;BME280;11581;51.250;6.778;2023-04-29T02:00:15;101001.94;;;14.59;66.29
22830;BME280;11581;51.250;6.778;2023-04-29T02:02:49;100971.06;;;14.47;66.03
22830;BME280;11581;51.250;6.778;2023-04-29T02:05:31;100941.34;;;14.25;65.84
22830;BME280;11581;51.250;6.778;2023-04-29T02:08:00;100997.88;;;14.55;65.98
22830;BME280;11581;51.250;6.778;2023-04-29T02:10:29;100924.56;;;14.07;66.06
22830;BME280;11581;51.250;6.778;2023-04-29T02:13:11;101006.97;;;14.54;66.00
22830;BME280;11581;51.250;6.778;2023-04-29T02:15:39;100921.50;;;14.02;66.06
22830;BME280;11581;51.250;6.778;2023-04-29T02:18:06;100880.41;;;13.69;65.97
22830;BME280;11581;51.250;6.778;2023-04-29T02:20:32;101014.00;;;14.47;65.88
22830;BME280;11581;51.250;6.778;2023-04-29T02:23:00;100934.75;;;13.95;65.54
22830;BME280;11581;51.250;6.778;2023-04-29T02:25:27;100887.78;;;13.59;65.49
22830;BME280;11581;51.250;6.778;2023-04-29T02:27:53;101024.38;;;14.34;65.42
22830;BME280;11581;51.250;6.778;2023-04-29T02:30:20;100888.69;;;13.42;65.48
22830;BME280;11581;51.250;6.778;2023-04-29T02:32:46;100889.72;;;13.41;65.60
22830;BME280;11581;51.250;6.778;2023-04-29T02:35:13;100944.06;;;13.67;65.41
22830;BME280;11581;51.250;6.778;2023-04-29T02:37:40;100945.72;;;13.68;65.29
22830;BME280;11581;51.250;6.778;2023-04-29T02:40:07;101034.19;;;14.18;65.45
22830;BME280;11581;51.250;6.778;2023-04-29T02:42:34;101035.38;;;14.15;65.50
22830;BME280;11581;51.250;6.778;2023-04-29T02:45:00;101032.84;;;14.14;65.56
22830;BME280;11581;51.250;6.778;2023-04-29T02:47:28;100833.56;;;12.90;65.60
22830;BME280;11581;51.250;6.778;2023-04-29T02:49:54;100950.06;;;13.61;65.81
22830;BME280;11581;51.250;6.778;2023-04-29T02:52:21;100989.16;;;13.80;66.17
22830;BME280;11581;51.250;6.778;2023-04-29T02:54:47;101060.84;;;14.11;66.03
22830;BME280;11581;51.250;6.778;2023-04-29T02:59:42;101055.63;;;14.10;66.33
22830;BME280;11581;51.250;6.778;2023-04-29T03:02:09;101063.00;;;14.08;66.63
22830;BME280;11581;51.250;6.778;2023-04-29T03:04:35;101035.09;;;13.85;66.61
22830;BME280;11581;51.250;6.778;2023-04-29T03:07:04;101057.78;;;14.06;66.79
22830;BME280;11581;51.250;6.778;2023-04-29T03:09:32;100867.69;;;12.88;66.79
22830;BME280;11581;51.250;6.778;2023-04-29T03:11:58;101066.31;;;14.02;67.08
22830;BME280;11581;51.250;6.778;2023-04-29T03:14:25;101009.88;;;13.70;66.79
22830;BME280;11581;51.250;6.778;2023-04-29T03:16:52;101063.31;;;13.97;66.74
22830;BME280;11581;51.250;6.778;2023-04-29T03:19:21;101058.06;;;13.87;66.75
22830;BME280;11581;51.250;6.778;2023-04-29T03:21:48;101068.47;;;13.90;67.16
22830;BME280;11581;51.250;6.778;2023-04-29T03:24:15;101035.97;;;13.60;67.31
22830;BME280;11581;51.250;6.778;2023-04-29T03:26:42;101071.78;;;13.84;67.32
22830;BME280;11581;51.250;6.778;2023-04-29T03:29:08;101044.88;;;13.60;67.04
22830;BME280;11581;51.250;6.778;2023-04-29T03:31:35;100931.44;;;12.92;67.75
22830;BME280;11581;51.250;6.778;2023-04-29T03:34:02;101006.47;;;13.26;67.62
22830;BME280;11581;51.250;6.778;2023-04-29T03:36:31;101078.59;;;13.71;67.71
22830;BME280;11581;51.250;6.778;2023-04-29T03:39:01;101094.16;;;13.67;67.71
22830;BME280;11581;51.250;6.778;2023-04-29T03:41:28;101087.44;;;13.63;67.99
22830;BME280;11581;51.250;6.778;2023-04-29T03:43:55;101082.69;;;13.57;68.23
22830;BME280;11581;51.250;6.778;2023-04-29T03:46:26;101052.75;;;13.36;68.47
22830;BME280;11581;51.250;6.778;2023-04-29T03:48:52;101086.72;;;13.53;68.61
22830;BME280;11581;51.250;6.778;2023-04-29T03:51:24;101086.88;;;13.52;68.75
22830;BME280;11581;51.250;6.778;2023-04-29T03:53:57;101054.06;;;13.32;68.80
22830;BME280;11581;51.250;6.778;2023-04-29T03:56:24;101087.34;;;13.47;68.67
22830;BME280;11581;51.250;6.778;2023-04-29T03:58:51;101089.47;;;13.43;68.84
22830;BME280;11581;51.250;6.778;2023-04-29T04:01:20;101098.38;;;13.44;69.15
22830;BME280;11581;51.250;6.778;2023-04-29T04:03:47;101095.84;;;13.42;69.19
22830;BME280;11581;51.250;6.778;2023-04-29T04:06:13;101085.56;;;13.30;69.22
22830;BME280;11581;51.250;6.778;2023-04-29T04:08:40;101096.00;;;13.41;69.24
22830;BME280;11581;51.250;6.778;2023-04-29T04:11:12;101110.41;;;13.40;68.95
22830;BME280;11581;51.250;6.778;2023-04-29T04:13:56;101077.75;;;13.19;69.08
22830;BME280;11581;51.250;6.778;2023-04-29T04:16:23;101109.00;;;13.36;69.06
22830;BME280;11581;51.250;6.778;2023-04-29T04:18:50;101110.88;;;13.35;69.19
22830;BME280;11581;51.250;6.778;2023-04-29T04:21:17;100956.41;;;12.32;69.10
22830;BME280;11581;51.250;6.778;2023-04-29T04:23:51;101114.88;;;13.31;69.25
22830;BME280;11581;51.250;6.778;2023-04-29T04:26:20;101001.16;;;12.65;69.12
22830;BME280;11581;51.250;6.778;2023-04-29T04:29:12;101115.03;;;13.30;69.17
22830;BME280;11581;51.250;6.778;2023-04-29T04:31:53;101103.03;;;13.16;68.93
22830;BME280;11581;51.250;6.778;2023-04-29T04:34:21;101068.97;;;12.91;69.17
22830;BME280;11581;51.250;6.778;2023-04-29T04:36:50;101105.16;;;13.13;69.46
22830;BME280;11581;51.250;6.778;2023-04-29T04:39:16;101073.81;;;12.88;69.14
22830;BME280;11581;51.250;6.778;2023-04-29T04:41:44;101131.56;;;13.25;69.26
22830;BME280;11581;51.250;6.778;2023-04-29T04:44:10;101112.81;;;13.08;69.42
22830;BME280;11581;51.250;6.778;2023-04-29T04:46:50;101146.78;;;13.25;69.51
22830;BME280;11581;51.250;6.778;2023-04-29T04:49:30;101057.13;;;12.76;69.60
22830;BME280;11581;51.250;6.778;2023-04-29T04:51:56;101141.09;;;13.28;69.33
22830;BME280;11581;51.250;6.778;2023-04-29T04:54:23;101151.81;;;13.28;69.49
22830;BME280;11581;51.250;6.778;2023-04-29T04:56:58;101045.00;;;12.64;69.25
22830;BME280;11581;51.250;6.778;2023-04-29T04:59:24;101174.94;;;13.29;69.53
22830;BME280;11581;51.250;6.778;2023-04-29T05:01:51;101155.19;;;13.30;69.51
22830;BME280;11581;51.250;6.778;2023-04-29T05:04:17;101159.56;;;13.31;69.70
22830;BME280;11581;51.250;6.778;2023-04-29T05:06:44;101165.59;;;13.33;69.52
22830;BME280;11581;51.250;6.778;2023-04-29T05:09:11;101136.97;;;13.16;69.09
22830;BME280;11581;51.250;6.778;2023-04-29T05:11:37;101161.91;;;13.34;69.52
22830;BME280;11581;51.250;6.778;2023-04-29T05:14:09;101179.50;;;13.36;69.54
22830;BME280;11581;51.250;6.778;2023-04-29T05:16:35;101173.16;;;13.37;69.53
22830;BME280;11581;51.250;6.778;2023-04-29T05:19:02;101058.53;;;12.63;69.37
22830;BME280;11581;51.250;6.778;2023-04-29T05:21:31;101181.03;;;13.39;69.66
22830;BME280;11581;51.250;6.778;2023-04-29T05:23:59;101195.13;;;13.41;69.69
22830;BME280;11581;51.250;6.778;2023-04-29T05:26:25;101099.28;;;12.92;69.49
22830;BME280;11581;51.250;6.778;2023-04-29T05:28:55;101172.31;;;13.37;69.45
22830;BME280;11581;51.250;6.778;2023-04-29T05:31:22;101173.31;;;13.36;69.42
22830;BME280;11581;51.250;6.778;2023-04-29T05:33:50;101099.78;;;12.95;69.28
22830;BME280;11581;51.250;6.778;2023-04-29T05:36:16;101167.28;;;13.34;69.43
22830;BME280;11581;51.250;6.778;2023-04-29T05:38:43;101192.03;;;13.53;69.43
22830;BME280;11581;51.250;6.778;2023-04-29T05:41:09;101150.34;;;13.33;69.53
22830;BME280;11581;51.250;6.778;2023-04-29T05:43:42;101193.78;;;13.63;69.78
22830;BME280;11581;51.250;6.778;2023-04-29T05:46:08;101204.03;;;13.67;69.56
22830;BME280;11581;51.250;6.778;2023-04-29T05:48:35;101202.41;;;13.74;69.65
22830;BME280;11581;51.250;6.778;2023-04-29T05:51:01;101212.50;;;13.80;69.57
22830;BME280;11581;51.250;6.778;2023-04-29T05:53:28;101116.00;;;13.29;69.42
22830;BME280;11581;51.250;6.778;2023-04-29T05:55:54;101214.59;;;13.94;69.38
22830;BME280;11581;51.250;6.778;2023-04-29T05:58:21;101221.88;;;14.02;69.20
22830;BME280;11581;51.250;6.778;2023-04-29T06:00:48;101207.31;;;14.04;69.03
22830;BME280;11581;51.250;6.778;2023-04-29T06:03:19;101216.59;;;14.18;69.04
22830;BME280;11581;51.250;6.778;2023-04-29T06:05:49;101221.03;;;14.27;68.66
22830;BME280;11581;51.250;6.778;2023-04-29T06:08:38;101231.69;;;14.36;68.13
22830;BME280;11581;51.250;6.778;2023-04-29T06:11:22;101205.09;;;14.25;68.05
22830;BME280;11581;51.250;6.778;2023-04-29T06:13:48;101239.09;;;14.50;67.51
22830;BME280;11581;51.250;6.778;2023-04-29T06:16:16;101244.00;;;14.55;67.45
22830;BME280;11581;51.250;6.778;2023-04-29T06:18:42;101250.72;;;14.59;67.45
22830;BME280;11581;51.250;6.778;2023-04-29T06:21:09;101251.91;;;14.64;67.06
22830;BME280;11581;51.250;6.778;2023-04-29T06:23:35;101230.03;;;14.51;66.81
22830;BME280;11581;51.250;6.778;2023-04-29T06:26:08;101259.31;;;14.70;66.30
22830;BME280;11581;51.250;6.778;2023-04-29T06:28:34;101263.69;;;14.71;66.33
22830;BME280;11581;51.250;6.778;2023-04-29T06:31:01;101262.31;;;14.67;66.41
22830;BME280;11581;51.250;6.778;2023-04-29T06:33:28;101261.47;;;14.67;65.82
22830;BME280;11581;51.250;6.778;2023-04-29T06:35:55;101269.38;;;14.68;65.57
22830;BME280;11581;51.250;6.778;2023-04-29T06:38:52;101260.97;;;14.63;65.63
22830;BME280;11581;51.250;6.778;2023-04-29T06:41:37;101276.28;;;14.71;65.36
22830;BME280;11581;51.250;6.778;2023-04-29T06:44:23;101077.13;;;13.50;65.14
22830;BME280;11581;51.250;6.778;2023-04-29T06:46:58;101273.38;;;14.64;65.28
22830;BME280;11581;51.250;6.778;2023-04-29T06:49:38;101286.31;;;14.69;65.25
22830;BME280;11581;51.250;6.778;2023-04-29T06:52:04;101272.03;;;14.60;65.32
22830;BME280;11581;51.250;6.778;2023-04-29T06:54:31;101237.34;;;14.33;65.33
22830;BME280;11581;51.250;6.778;2023-04-29T06:56:57;101277.72;;;14.57;64.95
22830;BME280;11581;51.250;6.778;2023-04-29T06:59:24;101276.88;;;14.57;64.99
22830;BME280;11581;51.250;6.778;2023-04-29T07:01:50;101297.06;;;14.69;64.98
22830;BME280;11581;51.250;6.778;2023-04-29T07:04:18;101157.69;;;13.75;64.74
22830;BME280;11581;51.250;6.778;2023-04-29T07:06:46;101311.34;;;14.69;64.61
22830;BME280;11581;51.250;6.778;2023-04-29T07:09:13;101308.66;;;14.69;64.80
22830;BME280;11581;51.250;6.778;2023-04-29T07:11:40;101263.03;;;14.44;64.88
22830;BME280;11581;51.250;6.778;2023-04-29T07:14:06;101307.63;;;14.62;64.96
22830;BME280;11581;51.250;6.778;2023-04-29T07:16:33;101021.63;;;12.92;64.67
22830;BME280;11581;51.250;6.778;2023-04-29T07:18:59;101331.50;;;14.73;64.73
22830;BME280;11581;51.250;6.778;2023-04-29T07:21:26;101271.94;;;14.44;64.55
22830;BME280;11581;51.250;6.778;2023-04-29T07:23:53;101297.84;;;14.53;64.68
22830;BME280;11581;51.250;6.778;2023-04-29T07:26:19;101111.28;;;13.48;64.30
22830;BME280;11581;51.250;6.778;2023-04-29T07:28:47;101340.25;;;14.83;64.45
22830;BME280;11581;51.250;6.778;2023-04-29T07:31:14;101322.91;;;14.70;64.24
22830;BME280;11581;51.250;6.778;2023-04-29T07:33:40;101350.38;;;14.89;63.93
22830;BME280;11581;51.250;6.778;2023-04-29T07:36:10;101356.44;;;14.91;63.65
22830;BME280;11581;51.250;6.778;2023-04-29T07:38:37;101304.25;;;14.60;63.84
22830;BME280;11581;51.250;6.778;2023-04-29T07:41:04;101314.03;;;14.69;63.93
22830;BME280;11581;51.250;6.778;2023-04-29T07:43:30;101362.00;;;14.98;63.68
22830;BME280;11581;51.250;6.778;2023-04-29T07:45:58;101310.00;;;14.73;63.41
22830;BME280;11581;51.250;6.778;2023-04-29T07:48:24;101357.47;;;14.98;63.28
22830;BME280;11581;51.250;6.778;2023-04-29T07:50:51;101368.69;;;14.94;63.12
22830;BME280;11581;51.250;6.778;2023-04-29T07:53:17;101309.31;;;14.71;62.88
22830;BME280;11581;51.250;6.778;2023-04-29T07:55:44;101364.50;;;14.99;62.96
22830;BME280;11581;51.250;6.778;2023-04-29T07:58:11;101367.19;;;14.99;62.97
22830;BME280;11581;51.250;6.778;2023-04-29T08:00:38;101319.41;;;14.69;62.87
22830;BME280;11581;51.250;6.778;2023-04-29T08:03:04;101371.72;;;14.99;62.80
22830;BME280;11581;51.250;6.778;2023-04-29T08:05:31;101334.50;;;14.70;62.78
22830;BME280;11581;51.250;6.778;2023-04-29T08:07:58;101365.47;;;14.90;62.92
22830;BME280;11581;51.250;6.778;2023-04-29T08:10:25;101391.38;;;14.99;63.21
22830;BME280;11581;51.250;6.778;2023-04-29T08:12:51;101282.69;;;14.44;63.25
22830;BME280;11581;51.250;6.778;2023-04-29T08:15:18;101385.91;;;15.09;63.25
22830;BME280;11581;51.250;6.778;2023-04-29T08:17:44;101379.84;;;15.15;63.30
22830;BME280;11581;51.250;6.778;2023-04-29T08:20:11;101369.59;;;15.10;62.93
22830;BME280;11581;51.250;6.778;2023-04-29T08:22:37;101384.56;;;15.21;62.55
22830;BME280;11581;51.250;6.778;2023-04-29T08:25:04;101350.75;;;15.02;61.85
22830;BME280;11581;51.250;6.778;2023-04-29T08:27:31;101331.25;;;14.92;61.76
22830;BME280;11581;51.250;6.778;2023-04-29T08:29:57;101413.72;;;15.33;61.36
22830;BME280;11581;51.250;6.778;2023-04-29T08:32:24;101397.75;;;15.32;61.42
22830;BME280;11581;51.250;6.778;2023-04-29T08:34:51;101398.88;;;15.29;61.47
22830;BME280;11581;51.250;6.778;2023-04-29T08:37:17;101404.59;;;15.26;61.41
22830;BME280;11581;51.250;6.778;2023-04-29T08:39:44;101389.25;;;15.11;61.44
22830;BME280;11581;51.250;6.778;2023-04-29T08:42:12;101399.19;;;15.18;61.58
22830;BME280;11581;51.250;6.778;2023-04-29T08:44:39;101332.13;;;14.67;61.26
22830;BME280;11581;51.250;6.778;2023-04-29T08:47:06;101328.44;;;14.68;61.42
22830;BME280;11581;51.250;6.778;2023-04-29T08:49:32;101371.16;;;14.87;61.51
22830;BME280;11581;51.250;6.778;2023-04-29T08:52:02;101421.84;;;15.16;61.49
22830;BME280;11581;51.250;6.778;2023-04-29T08:54:30;101393.72;;;14.94;61.51
22830;BME280;11581;51.250;6.778;2023-04-29T08:56:57;101429.69;;;15.09;61.61
22830;BME280;11581;51.250;6.778;2023-04-29T08:59:27;101285.38;;;14.19;61.49
22830;BME280;11581;51.250;6.778;2023-04-29T09:01:55;101432.38;;;15.01;61.63
22830;BME280;11581;51.250;6.778;2023-04-29T09:07:17;101434.66;;;14.96;61.72
22830;BME280;11581;51.250;6.778;2023-04-29T09:09:44;101438.38;;;14.95;61.82
22830;BME280;11581;51.250;6.778;2023-04-29T09:12:11;101373.47;;;14.49;62.01
22830;BME280;11581;51.250;6.778;2023-04-29T09:14:38;101334.56;;;14.27;61.99
22830;BME280;11581;51.250;6.778;2023-04-29T09:17:04;101412.50;;;14.69;62.13
22830;BME280;11581;51.250;6.778;2023-04-29T09:19:32;101449.75;;;14.89;62.03
22830;BME280;11581;51.250;6.778;2023-04-29T09:22:00;101456.13;;;14.88;62.19
22830;BME280;11581;51.250;6.778;2023-04-29T09:24:29;101447.22;;;14.88;62.22
22830;BME280;11581;51.250;6.778;2023-04-29T09:26:57;101423.09;;;14.70;62.09
22830;BME280;11581;51.250;6.778;2023-04-29T09:29:23;101457.78;;;14.89;61.90
22830;BME280;11581;51.250;6.778;2023-04-29T09:31:50;101452.44;;;14.89;62.39
22830;BME280;11581;51.250;6.778;2023-04-29T09:34:29;101441.41;;;14.75;62.68
22830;BME280;11581;51.250;6.778;2023-04-29T09:36:56;101463.88;;;14.91;62.62
22830;BME280;11581;51.250;6.778;2023-04-29T09:39:24;101477.97;;;14.93;62.37
22830;BME280;11581;51.250;6.778;2023-04-29T09:44:21;101176.63;;;13.12;62.37
22830;BME280;11581;51.250;6.778;2023-04-29T09:47:04;101462.72;;;15.02;62.26
22830;BME280;11581;51.250;6.778;2023-04-29T09:49:36;101466.97;;;15.04;62.01
22830;BME280;11581;51.250;6.778;2023-04-29T09:52:06;101481.75;;;15.08;61.97
22830;BME280;11581;51.250;6.778;2023-04-29T09:54:34;101379.47;;;14.43;61.91
22830;BME280;11581;51.250;6.778;2023-04-29T09:57:02;101478.06;;;15.09;61.90
22830;BME280;11581;51.250;6.778;2023-04-29T09:59:30;101437.09;;;14.82;62.03
22830;BME280;11581;51.250;6.778;2023-04-29T10:01:57;101457.16;;;14.95;61.86
22830;BME280;11581;51.250;6.778;2023-04-29T10:04:25;101481.44;;;15.11;62.05
22830;BME280;11581;51.250;6.778;2023-04-29T10:06:54;101321.16;;;14.10;61.89
22830;BME280;11581;51.250;6.778;2023-04-29T10:09:22;101491.88;;;15.14;62.05
22830;BME280;11581;51.250;6.778;2023-04-29T10:11:50;101423.81;;;14.80;61.96
22830;BME280;11581;51.250;6.778;2023-04-29T10:14:19;101406.44;;;14.67;61.83
22830;BME280;11581;51.250;6.778;2023-04-29T10:16:49;101503.81;;;15.20;61.83
22830;BME280;11581;51.250;6.778;2023-04-29T10:20:14;101497.44;;;15.21;61.85
22830;BME280;11581;51.250;6.778;2023-04-29T10:22:28;101503.34;;;15.24;61.78
22830;BME280;11581;51.250;6.778;2023-04-29T10:25:00;101388.47;;;14.59;61.65
22830;BME280;11581;51.250;6.778;2023-04-29T10:27:28;101505.25;;;15.32;61.62
22830;BME280;11581;51.250;6.778;2023-04-29T10:29:55;101298.84;;;14.09;61.75
22830;BME280;11581;51.250;6.778;2023-04-29T10:32:23;101513.69;;;15.37;61.72
22830;BME280;11581;51.250;6.778;2023-04-29T10:34:54;101468.84;;;15.12;61.57
22830;BME280;11581;51.250;6.778;2023-04-29T10:37:22;101473.09;;;15.22;61.85
22830;BME280;11581;51.250;6.778;2023-04-29T10:45:27;101521.75;;;15.71;61.20
22830;BME280;11581;51.250;6.778;2023-04-29T10:50:34;101523.69;;;15.94;60.86
22830;BME280;11581;51.250;6.778;2023-04-29T10:53:06;101447.75;;;15.58;61.08
22830;BME280;11581;51.250;6.778;2023-04-29T10:55:36;101488.53;;;15.96;60.48
22830;BME280;11581;51.250;6.778;2023-04-29T10:58:04;101368.19;;;15.32;60.80
22830;BME280;11581;51.250;6.778;2023-04-29T11:00:32;101403.75;;;15.68;60.33
22830;BME280;11581;51.250;6.778;2023-04-29T11:03:01;101515.91;;;16.57;60.26
22830;BME280;11581;51.250;6.778;2023-04-29T11:05:35;101522.31;;;16.72;59.61
22830;BME280;11581;51.250;6.778;2023-04-29T11:08:18;101515.06;;;16.88;59.00
22830;BME280;11581;51.250;6.778;2023-04-29T11:10:51;101513.03;;;17.06;58.60
22830;BME280;11581;51.250;6.778;2023-04-29T11:16:13;101515.81;;;17.45;59.46
22830;BME280;11581;51.250;6.778;2023-04-29T11:19:04;101524.47;;;17.71;57.71
22830;BME280;11581;51.250;6.778;2023-04-29T11:21:33;101204.41;;;15.95;57.29
22830;BME280;11581;51.250;6.778;2023-04-29T11:24:00;101517.69;;;18.14;57.66
22830;BME280;11581;51.250;6.778;2023-04-29T11:26:27;101481.75;;;18.13;56.83
22830;BME280;11581;51.250;6.778;2023-04-29T11:28:55;101480.19;;;18.19;56.30
22830;BME280;11581;51.250;6.778;2023-04-29T11:31:30;101531.34;;;18.65;54.81
22830;BME280;11581;51.250;6.778;2023-04-29T11:33:58;101371.47;;;17.88;55.20
22830;BME280;11581;51.250;6.778;2023-04-29T11:36:25;101506.94;;;18.96;55.34
22830;BME280;11581;51.250;6.778;2023-04-29T11:38:52;101509.94;;;19.01;54.88
22830;BME280;11581;51.250;6.778;2023-04-29T11:41:19;101498.47;;;19.13;54.54
22830;BME280;11581;51.250;6.778;2023-04-29T11:43:46;101321.34;;;18.30;54.21
22830;BME280;11581;51.250;6.778;2023-04-29T11:46:14;101444.88;;;19.17;53.79
22830;BME280;11581;51.250;6.778;2023-04-29T11:48:46;101393.59;;;18.94;51.71
22830;BME280;11581;51.250;6.778;2023-04-29T11:51:14;101414.97;;;19.33;52.66
22830;BME280;11581;51.250;6.778;2023-04-29T11:53:40;101518.91;;;20.18;52.98
22830;BME280;11581;51.250;6.778;2023-04-29T11:56:08;101510.41;;;20.21;51.95
22830;BME280;11581;51.250;6.778;2023-04-29T11:58:35;101429.66;;;19.95;51.39
22830;BME280;11581;51.250;6.778;2023-04-29T12:01:03;101525.09;;;20.75;51.18
22830;BME280;11581;51.250;6.778;2023-04-29T12:03:31;101531.94;;;20.92;50.04
22830;BME280;11581;51.250;6.778;2023-04-29T12:05:58;101519.59;;;21.10;49.99
22830;BME280;11581;51.250;6.778;2023-04-29T12:08:26;101528.25;;;21.27;49.09
22830;BME280;11581;51.250;6.778;2023-04-29T12:10:57;101463.88;;;21.08;47.06
22830;BME280;11581;51.250;6.778;2023-04-29T12:13:26;101464.50;;;21.10;48.08
22830;BME280;11581;51.250;6.778;2023-04-29T12:15:54;101440.38;;;21.21;48.16
22830;BME280;11581;51.250;6.778;2023-04-29T12:18:21;101487.81;;;21.66;47.93
22830;BME280;11581;51.250;6.778;2023-04-29T12:20:48;101367.03;;;21.02;47.58
22830;BME280;11581;51.250;6.778;2023-04-29T12:23:18;101544.63;;;22.08;46.77
22830;BME280;11581;51.250;6.778;2023-04-29T12:25:51;101459.03;;;21.78;45.27
22830;BME280;11581;51.250;6.778;2023-04-29T12:28:19;101518.53;;;22.33;46.59
22830;BME280;11581;51.250;6.778;2023-04-29T12:30:46;101529.44;;;22.46;46.28
22830;BME280;11581;51.250;6.778;2023-04-29T12:33:23;101449.53;;;22.08;43.46
22830;BME280;11581;51.250;6.778;2023-04-29T12:35:55;101468.81;;;22.39;45.73
22830;BME280;11581;51.250;6.778;2023-04-29T12:38:24;101464.00;;;22.48;44.73
22830;BME280;11581;51.250;6.778;2023-04-29T12:40:55;101524.28;;;23.03;44.81
22830;BME280;11581;51.250;6.778;2023-04-29T12:43:26;101516.13;;;23.16;42.48
22830;BME280;11581;51.250;6.778;2023-04-29T12:45:59;101519.91;;;23.28;44.24
22830;BME280;11581;51.250;6.778;2023-04-29T12:48:31;101514.66;;;23.40;43.05
22830;BME280;11581;51.250;6.778;2023-04-29T12:50:59;101518.63;;;23.50;43.59
22830;BME280;11581;51.250;6.778;2023-04-29T12:53:26;101517.34;;;23.59;43.13
22830;BME280;11581;51.250;6.778;2023-04-29T12:55:54;101470.91;;;23.41;43.09
22830;BME280;11581;51.250;6.778;2023-04-29T12:58:21;101521.44;;;23.81;43.09
22830;BME280;11581;51.250;6.778;2023-04-29T13:00:47;101465.13;;;23.69;43.46
22830;BME280;11581;51.250;6.778;2023-04-29T13:03:14;101521.69;;;24.24;42.85
22830;BME280;11581;51.250;6.778;2023-04-29T13:05:40;101384.72;;;23.66;41.56
22830;BME280;11581;51.250;6.778;2023-04-29T13:08:07;101525.19;;;24.69;41.15
22830;BME280;11581;51.250;6.778;2023-04-29T13:10:34;101411.91;;;24.11;39.79
22830;BME280;11581;51.250;6.778;2023-04-29T13:13:00;101502.16;;;24.65;38.71
22830;BME280;11581;51.250;6.778;2023-04-29T13:15:28;101528.13;;;24.74;38.02
22830;BME280;11581;51.250;6.778;2023-04-29T13:17:54;101487.91;;;24.25;37.73
22830;BME280;11581;51.250;6.778;2023-04-29T13:20:22;101537.59;;;24.27;37.62
22830;BME280;11581;51.250;6.778;2023-04-29T13:22:49;101540.69;;;23.99;38.68